Depue, Illinois
Current Conditions -  °F | °C
As of 3:55 AM on Tuesday 21 Oct 2014 (Local Time) from KVYS Reporting Station
Clear Clear  
Wind Chill: 36°   Ceiling: Unl
Heat Index: 41°   Visibility: 10mi
Dew Point: 38°   Wind: 7mph
Humidity: 90%   Direction: 320°NW
Pressure: 30.06"   Gusts: NA
Location:  41.32°N, 89.31°W
Report Text: KVYS 210855Z AUTO 32006KT 10SM CLR 05/04 A3006 RMK AO2 T00500035
Loading
Personal Weather Stations






























Interactive Weather Map
Tropical Storm Tracking
New forecast layout! Learn more

10-Day Weather Forecast

Advertisements
Track Severe Weather on mobile